Time;durP1;ratioP1;P1;durP2;ratioP2;P2;SDS_P1;SDS_P2;PMS_P1;PMS_P2;Temp;Humidity;BMP_temperature;BMP_pressure;BME280_temperature;BME280_humidity;BME280_pressure;Samples;Min_cycle;Max_cycle;Signal;HPM_P1;HPM_P2
2022/05/30 00:00:31;;;;;;;3.45;0.93;;;10.90;84.00;;;;;;2087729;28;20021;-96
2022/05/30 00:01:52;;;;;;;2.38;0.60;;;10.90;84.10;;;;;;2079485;28;20436;-96
2022/05/30 00:03:13;;;;;;;2.17;0.57;;;10.90;84.10;;;;;;2073421;28;20042;-96
2022/05/30 00:04:35;;;;;;;;;;;10.90;84.20;;;;;;2082353;28;20026;-96
2022/05/30 00:05:55;;;;;;;3.70;0.50;;;10.90;84.20;;;;;;2080091;28;19909;-96
2022/05/30 00:07:14;;;;;;;4.50;0.45;;;10.80;84.10;;;;;;2077667;28;20042;-96
2022/05/30 00:08:42;;;;;;;1.27;0.40;;;10.80;84.20;;;;;;2076815;28;20520;-96
2022/05/30 00:10:03;;;;;;;4.47;0.57;;;10.70;84.30;;;;;;2085972;28;20038;-96
2022/05/30 00:11:23;;;;;;;2.00;0.60;;;10.70;84.50;;;;;;2087983;28;20057;-96
2022/05/30 00:12:45;;;;;;;2.17;0.82;;;10.70;84.50;;;;;;2091063;28;20025;-96
2022/05/30 00:14:05;;;;;;;1.33;0.52;;;10.70;84.70;;;;;;2084389;28;20033;-96
2022/05/30 00:15:25;;;;;;;2.75;0.60;;;10.70;84.70;;;;;;2078054;28;20042;-96
2022/05/30 00:16:44;;;;;;;1.77;0.43;;;10.70;84.80;;;;;;2071353;28;20039;-96
2022/05/30 00:18:07;;;;;;;1.52;0.50;;;10.70;84.90;;;;;;2075839;28;20516;-96
2022/05/30 00:28:55;;;;;;;1.25;0.50;;;10.60;85.00;;;;;;2085239;28;20113;-96
2022/05/30 00:30:16;;;;;;;1.30;0.40;;;10.50;85.00;;;;;;2084512;28;20033;-96
2022/05/30 00:31:37;;;;;;;2.13;0.50;;;10.50;85.20;;;;;;2076554;28;20035;-94
2022/05/30 00:35:27;;;;;;;1.90;0.60;;;10.40;85.30;;;;;;2076890;28;20047;-95
2022/05/30 00:36:49;;;;;;;2.00;0.57;;;10.50;85.30;;;;;;2085312;28;20021;-96
2022/05/30 00:38:47;;;;;;;1.83;0.45;;;10.50;85.30;;;;;;2076803;28;20042;-96
2022/05/30 00:40:10;;;;;;;2.47;0.70;;;10.50;85.40;;;;;;2091173;28;20049;-96
2022/05/30 00:41:32;;;;;;;3.22;0.50;;;10.50;85.40;;;;;;2092794;28;20049;-96
2022/05/30 00:42:57;;;;;;;1.02;0.45;;;10.50;85.40;;;;;;2087197;28;20057;-96
2022/05/30 00:44:17;;;;;;;1.05;0.40;;;10.50;85.50;;;;;;2080372;28;20030;-96
2022/05/30 00:45:46;;;;;;;1.70;0.60;;;10.40;85.50;;;;;;2095138;28;20029;-96
2022/05/30 00:47:07;;;;;;;1.50;0.63;;;10.40;85.50;;;;;;2094915;28;20033;-96
2022/05/30 00:48:34;;;;;;;2.38;0.50;;;10.40;85.60;;;;;;2097422;28;20033;-96
2022/05/30 00:49:58;;;;;;;3.55;0.70;;;10.40;85.70;;;;;;2107023;28;20024;-96
2022/05/30 00:51:28;;;;;;;3.33;0.70;;;10.40;85.80;;;;;;2099977;28;20033;-96
2022/05/30 00:52:49;;;;;;;3.17;0.60;;;10.40;85.80;;;;;;2090803;28;20013;-96
2022/05/30 00:54:13;;;;;;;3.55;0.65;;;10.40;85.80;;;;;;2095288;28;20056;-96
2022/05/30 00:55:37;;;;;;;1.80;0.50;;;10.40;85.80;;;;;;2096307;28;20112;-96
2022/05/30 00:57:21;;;;;;;3.13;0.60;;;10.40;85.80;;;;;;2100480;28;20037;-96
2022/05/30 00:59:21;;;;;;;1.92;0.63;;;10.40;85.80;;;;;;2084442;28;20010;-96
2022/05/30 01:00:41;;;;;;;1.70;0.50;;;10.40;85.90;;;;;;2101625;28;20037;-96
2022/05/30 01:02:03;;;;;;;2.33;0.50;;;10.40;85.80;;;;;;2086701;28;20022;-96
2022/05/30 01:06:43;;;;;;;2.20;0.55;;;10.40;85.90;;;;;;2085453;28;20033;-96
2022/05/30 01:08:03;;;;;;;3.35;0.60;;;10.40;85.90;;;;;;2082310;28;20045;-96
2022/05/30 01:09:54;;;;;;;5.40;1.10;;;10.40;85.80;;;;;;2076908;28;20037;-96
2022/05/30 01:11:15;;;;;;;;;;;10.40;85.90;;;;;;2099953;28;20033;-96
2022/05/30 01:12:41;;;;;;;1.48;0.45;;;10.30;85.90;;;;;;2080880;28;19901;-96
2022/05/30 01:14:02;;;;;;;2.55;0.50;;;10.30;85.90;;;;;;2072659;28;20030;-96
2022/05/30 01:15:27;;;;;;;1.77;0.60;;;10.30;85.90;;;;;;2089127;28;20037;-96
2022/05/30 01:16:48;;;;;;;1.50;0.50;;;10.30;86.00;;;;;;2096681;28;20033;-96
2022/05/30 01:18:24;;;;;;;2.40;0.50;;;10.20;86.00;;;;;;2081738;28;20034;-96
2022/05/30 01:20:08;;;;;;;2.65;0.68;;;10.20;86.10;;;;;;2102646;28;20021;-96
2022/05/30 01:22:03;;;;;;;1.50;0.40;;;10.10;86.20;;;;;;2092081;28;20022;-96
2022/05/30 01:23:29;;;;;;;2.00;0.55;;;10.10;86.40;;;;;;2089999;28;20049;-96
2022/05/30 01:24:59;;;;;;;2.63;0.63;;;10.00;86.50;;;;;;2091584;28;20037;-96
2022/05/30 01:26:41;;;;;;;1.35;0.70;;;10.00;86.60;;;;;;2102010;28;20013;-96
2022/05/30 01:28:22;;;;;;;2.22;0.60;;;10.00;86.60;;;;;;2091488;28;20037;-96
2022/05/30 01:29:46;;;;;;;;;;;9.90;86.50;;;;;;2090745;28;20018;-96
2022/05/30 01:31:10;;;;;;;2.22;0.55;;;9.90;86.50;;;;;;2091568;28;19897;-96
2022/05/30 01:32:36;;;;;;;1.70;0.57;;;9.90;86.50;;;;;;2090970;28;20037;-96
2022/05/30 01:33:56;;;;;;;1.30;0.50;;;9.90;86.60;;;;;;2075734;28;20027;-96
2022/05/30 01:35:25;;;;;;;3.85;0.57;;;9.90;86.60;;;;;;2081260;28;20041;-95
2022/05/30 01:36:46;;;;;;;2.13;0.60;;;9.80;86.60;;;;;;2091613;28;20025;-96
2022/05/30 01:38:07;;;;;;;;;;;9.80;86.80;;;;;;2076875;28;20018;-96
2022/05/30 01:39:27;;;;;;;2.03;0.60;;;9.80;86.80;;;;;;2077676;28;19913;-96
2022/05/30 01:43:06;;;;;;;2.33;0.65;;;9.60;87.10;;;;;;2088169;28;20507;-96
2022/05/30 01:44:31;;;;;;;3.33;0.80;;;9.50;87.20;;;;;;2096770;28;20062;-96
2022/05/30 01:45:50;;;;;;;3.47;0.80;;;9.50;86.90;;;;;;2084111;28;20033;-96
2022/05/30 01:47:11;;;;;;;3.25;0.50;;;9.50;87.50;;;;;;2088927;28;20033;-96
2022/05/30 01:48:30;;;;;;;2.75;0.70;;;9.40;87.70;;;;;;2091632;28;20029;-96
2022/05/30 01:49:51;;;;;;;2.08;0.60;;;9.40;87.80;;;;;;2088520;28;20037;-96
2022/05/30 01:51:32;;;;;;;4.93;1.00;;;9.40;88.00;;;;;;2074971;28;20038;-96
2022/05/30 01:52:53;;;;;;;3.72;0.73;;;9.30;88.10;;;;;;2089398;28;20029;-96
2022/05/30 01:54:13;;;;;;;;;;;9.30;88.20;;;;;;2086313;28;20022;-96
2022/05/30 01:55:45;;;;;;;2.35;0.55;;;9.30;88.10;;;;;;2086090;28;19917;-96
2022/05/30 01:57:07;;;;;;;1.52;0.50;;;9.30;88.10;;;;;;2088699;28;20037;-96
2022/05/30 01:58:32;;;;;;;1.50;0.70;;;9.30;88.00;;;;;;2082190;28;20026;-96
2022/05/30 01:59:56;;;;;;;2.05;0.70;;;9.40;88.10;;;;;;2094410;28;20029;-96
2022/05/30 02:01:23;;;;;;;1.33;0.63;;;9.40;88.10;;;;;;2081340;28;20081;-96
2022/05/30 02:02:42;;;;;;;1.75;0.50;;;9.40;88.10;;;;;;2078169;28;20018;-96
2022/05/30 02:06:25;;;;;;;2.60;0.60;;;9.30;88.10;;;;;;2091619;28;20037;-96
2022/05/30 02:07:48;;;;;;;3.28;0.80;;;9.30;88.10;;;;;;2098994;28;20113;-96
2022/05/30 02:09:23;;;;;;;1.52;0.55;;;9.30;88.20;;;;;;2090988;28;20029;-96
2022/05/30 02:10:43;;;;;;;2.50;0.60;;;9.30;88.30;;;;;;2088714;28;20033;-96
2022/05/30 02:12:06;;;;;;;2.63;0.63;;;9.20;88.30;;;;;;2087234;28;20030;-96
2022/05/30 02:13:25;;;;;;;4.55;0.73;;;9.20;88.40;;;;;;2086729;28;20030;-96
2022/05/30 02:18:55;;;;;;;2.58;0.73;;;9.20;88.60;;;;;;2099991;28;20029;-96
2022/05/30 02:20:18;;;;;;;3.47;0.90;;;9.10;88.60;;;;;;2090617;28;20045;-96
2022/05/30 02:21:47;;;;;;;2.65;0.60;;;9.10;88.60;;;;;;2095830;28;20029;-96
2022/05/30 02:23:12;;;;;;;2.20;0.77;;;9.10;88.70;;;;;;2091278;28;20025;-96
2022/05/30 02:24:42;;;;;;;1.30;0.60;;;9.00;88.80;;;;;;2095788;28;20017;-96
2022/05/30 02:26:07;;;;;;;2.85;0.70;;;9.00;88.80;;;;;;2099635;28;20029;-96
2022/05/30 02:27:32;;;;;;;1.95;0.57;;;9.10;88.90;;;;;;2099194;28;20025;-96
2022/05/30 02:29:04;;;;;;;2.58;0.60;;;9.10;88.90;;;;;;2099184;28;20033;-96
2022/05/30 02:30:33;;;;;;;2.78;0.60;;;9.10;88.90;;;;;;2082851;28;20034;-96
2022/05/30 02:32:13;;;;;;;2.35;0.73;;;9.10;88.90;;;;;;2099924;28;20037;-96
2022/05/30 02:37:11;;;;;;;2.88;0.80;;;9.10;88.80;;;;;;2105437;28;20092;-96
2022/05/30 02:38:36;;;;;;;2.17;0.50;;;9.20;88.70;;;;;;2105992;28;20020;-96
2022/05/30 02:39:56;;;;;;;2.53;0.60;;;9.20;88.70;;;;;;2091325;28;20030;-96
2022/05/30 02:41:49;;;;;;;1.83;0.60;;;9.20;88.70;;;;;;2080319;28;20091;-96
2022/05/30 02:43:10;;;;;;;1.58;0.57;;;9.20;88.80;;;;;;2099780;28;20029;-96
2022/05/30 02:44:54;;;;;;;2.15;0.52;;;9.20;88.80;;;;;;2100651;28;20074;-96
2022/05/30 02:46:40;;;;;;;3.33;0.87;;;9.20;88.70;;;;;;2081242;28;20038;-96
2022/05/30 02:47:59;;;;;;;2.53;0.70;;;9.30;88.60;;;;;;2114482;22;20236;-87
2022/05/30 02:49:20;;;;;;;2.95;0.70;;;9.30;88.60;;;;;;2094172;28;20044;-88
2022/05/30 02:50:39;;;;;;;4.10;0.80;;;9.30;88.60;;;;;;2098352;28;20032;-88
2022/05/30 02:51:59;;;;;;;1.35;0.57;;;9.30;88.60;;;;;;2089343;28;20032;-88
2022/05/30 02:53:18;;;;;;;2.17;0.65;;;9.30;88.70;;;;;;2078784;28;20108;-87
2022/05/30 02:54:39;;;;;;;1.58;0.50;;;9.30;88.70;;;;;;2068843;28;20459;-88
2022/05/30 02:55:59;;;;;;;;;;;9.30;88.80;;;;;;2080985;28;20052;-87
2022/05/30 02:57:18;;;;;;;1.60;0.95;;;9.30;88.70;;;;;;2084457;28;20453;-87
2022/05/30 02:58:38;;;;;;;2.33;0.70;;;9.30;88.70;;;;;;2085088;28;20045;-86
2022/05/30 02:59:57;;;;;;;2.58;0.60;;;9.30;88.70;;;;;;2088623;28;20024;-87
2022/05/30 03:01:16;;;;;;;3.13;0.70;;;9.30;88.70;;;;;;2088339;28;20033;-88
2022/05/30 03:02:36;;;;;;;1.40;0.60;;;9.30;88.80;;;;;;2085953;28;20021;-87
2022/05/30 03:03:55;;;;;;;1.83;0.60;;;9.40;88.80;;;;;;2086896;28;20577;-86
2022/05/30 03:05:14;;;;;;;2.72;0.60;;;9.40;88.90;;;;;;2092898;28;20491;-87
2022/05/30 03:06:34;;;;;;;2.38;0.60;;;9.40;88.90;;;;;;2090234;28;20045;-87
2022/05/30 03:07:53;;;;;;;2.72;0.80;;;9.40;88.90;;;;;;2095230;28;20033;-88
2022/05/30 03:09:13;;;;;;;2.05;0.60;;;9.40;89.00;;;;;;2100077;28;20120;-88
2022/05/30 03:10:33;;;;;;;3.78;0.70;;;9.30;89.00;;;;;;2095552;28;20487;-88
2022/05/30 03:11:52;;;;;;;2.42;0.70;;;9.30;89.00;;;;;;2079577;28;20033;-87
2022/05/30 03:13:11;;;;;;;1.92;0.68;;;9.30;89.00;;;;;;2074826;28;20496;-87
2022/05/30 03:14:30;;;;;;;2.22;0.80;;;9.30;89.00;;;;;;2070155;28;20078;-86
2022/05/30 03:15:49;;;;;;;1.23;0.60;;;9.30;89.00;;;;;;2090124;28;20425;-87
2022/05/30 03:17:08;;;;;;;1.27;0.73;;;9.30;89.00;;;;;;2095279;28;20056;-87
2022/05/30 03:18:28;;;;;;;2.10;0.63;;;9.30;89.00;;;;;;2066324;28;20038;-88
2022/05/30 03:19:47;;;;;;;2.30;0.55;;;9.20;89.10;;;;;;2084817;28;20071;-88
2022/05/30 03:21:06;;;;;;;2.90;0.85;;;9.20;89.20;;;;;;2064768;28;20419;-88
2022/05/30 03:22:25;;;;;;;1.40;0.60;;;9.20;89.20;;;;;;2076723;28;20033;-87
2022/05/30 03:23:45;;;;;;;1.77;0.70;;;9.30;89.30;;;;;;2069252;28;20038;-87
2022/05/30 03:25:05;;;;;;;2.95;0.70;;;9.20;89.30;;;;;;2075050;28;20116;-86
2022/05/30 03:26:24;;;;;;;2.15;0.80;;;9.20;89.40;;;;;;2057050;28;20039;-87
2022/05/30 03:27:43;;;;;;;1.92;0.70;;;9.20;89.40;;;;;;2067215;28;20129;-87
2022/05/30 03:29:04;;;;;;;1.65;0.70;;;9.20;89.40;;;;;;2072958;28;20029;-87
2022/05/30 03:30:23;;;;;;;3.10;0.70;;;9.30;89.40;;;;;;2064729;28;20511;-87
2022/05/30 03:31:42;;;;;;;2.15;0.73;;;9.30;89.40;;;;;;2069647;28;20033;-87
2022/05/30 03:33:03;;;;;;;1.83;0.77;;;9.30;89.30;;;;;;2060820;28;20038;-87
2022/05/30 03:34:22;;;;;;;;;;;9.30;89.30;;;;;;2081254;28;20037;-88
2022/05/30 03:35:42;;;;;;;1.02;0.57;;;9.30;89.20;;;;;;2073402;28;19913;-88
2022/05/30 03:37:01;;;;;;;1.20;0.50;;;9.20;89.20;;;;;;2073805;28;20090;-88
2022/05/30 03:38:20;;;;;;;1.33;0.60;;;9.30;89.20;;;;;;2081831;28;20292;-87
2022/05/30 03:39:39;;;;;;;1.20;0.50;;;9.30;89.20;;;;;;2090231;28;20037;-88
2022/05/30 03:40:59;;;;;;;2.78;0.60;;;9.30;89.20;;;;;;2083830;28;20041;-87
2022/05/30 03:42:18;;;;;;;2.78;0.80;;;9.40;89.20;;;;;;2089598;28;20045;-87
2022/05/30 03:43:37;;;;;;;1.48;0.80;;;9.40;89.10;;;;;;2087099;28;20037;-88
2022/05/30 03:44:56;;;;;;;2.25;0.50;;;9.40;89.10;;;;;;2091801;28;20041;-88
2022/05/30 03:46:16;;;;;;;2.97;0.68;;;9.40;89.10;;;;;;2090558;28;20033;-87
2022/05/30 03:47:45;;;;;;;2.40;0.60;;;9.40;89.00;;;;;;2087095;28;20033;-87
2022/05/30 03:49:04;;;;;;;2.30;0.70;;;9.50;89.10;;;;;;2093578;28;20037;-87
2022/05/30 03:50:24;;;;;;;2.35;0.50;;;9.50;89.00;;;;;;2094355;28;20528;-87
2022/05/30 03:51:43;;;;;;;2.78;0.82;;;9.50;89.00;;;;;;2093093;28;20484;-87
2022/05/30 03:53:05;;;;;;;1.38;0.50;;;9.50;89.00;;;;;;2081213;28;20458;-87
2022/05/30 03:54:26;;;;;;;1.58;0.60;;;9.50;88.90;;;;;;2085089;28;20036;-87
2022/05/30 03:55:45;;;;;;;1.90;0.70;;;9.50;88.90;;;;;;2081003;28;20025;-88
2022/05/30 03:57:05;;;;;;;2.25;0.68;;;9.60;88.90;;;;;;2090799;28;20479;-87
2022/05/30 03:58:24;;;;;;;2.67;0.85;;;9.60;88.90;;;;;;2096107;28;20071;-87
2022/05/30 03:59:43;;;;;;;1.88;0.75;;;9.60;88.80;;;;;;2082548;28;20442;-87
2022/05/30 04:01:05;;;;;;;1.05;0.57;;;9.60;88.90;;;;;;2086388;28;20601;-87
2022/05/30 04:02:25;;;;;;;1.42;0.60;;;9.60;88.80;;;;;;2082061;28;20030;-87
2022/05/30 04:03:44;;;;;;;1.70;0.63;;;9.60;89.40;;;;;;2079749;28;20026;-87
2022/05/30 04:05:04;;;;;;;1.35;0.50;;;9.70;88.90;;;;;;2071410;28;20038;-87
2022/05/30 04:06:23;;;;;;;1.60;0.55;;;9.60;88.90;;;;;;2084470;28;20041;-87
2022/05/30 04:07:43;;;;;;;1.85;0.60;;;9.70;89.00;;;;;;2082111;28;20029;-87
2022/05/30 04:09:02;;;;;;;1.70;0.65;;;9.70;89.00;;;;;;2091328;28;20060;-87
2022/05/30 04:10:22;;;;;;;2.40;0.80;;;9.70;89.00;;;;;;2088544;28;20029;-87
2022/05/30 04:11:41;;;;;;;2.25;0.70;;;9.70;89.00;;;;;;2075375;28;20034;-87
2022/05/30 04:13:07;;;;;;;2.78;0.80;;;9.70;89.00;;;;;;2073112;28;20037;-87
2022/05/30 04:14:26;;;;;;;2.85;0.85;;;9.80;89.00;;;;;;2083810;28;20445;-87
2022/05/30 04:15:45;;;;;;;1.05;0.50;;;9.80;88.90;;;;;;2090105;28;20044;-88
2022/05/30 04:17:05;;;;;;;2.38;0.65;;;9.80;88.90;;;;;;2081001;28;20037;-87
2022/05/30 04:18:25;;;;;;;1.67;0.65;;;9.80;88.80;;;;;;2082223;28;20504;-87
2022/05/30 04:19:44;;;;;;;1.65;0.63;;;9.80;88.90;;;;;;2086062;28;20084;-87
2022/05/30 04:21:07;;;;;;;2.15;0.77;;;9.80;88.80;;;;;;2078057;28;20484;-87
2022/05/30 04:22:26;;;;;;;1.73;0.70;;;9.80;88.80;;;;;;2093750;28;20387;-87
2022/05/30 04:23:45;;;;;;;1.77;0.63;;;9.90;88.80;;;;;;2076608;28;20041;-88
2022/05/30 04:25:05;;;;;;;1.55;0.80;;;9.90;88.70;;;;;;2081324;28;20045;-88
2022/05/30 04:26:24;;;;;;;1.60;0.55;;;9.90;88.70;;;;;;2095911;28;20036;-87
2022/05/30 04:27:43;;;;;;;1.45;0.50;;;9.90;88.60;;;;;;2099479;28;20040;-87
2022/05/30 04:29:03;;;;;;;2.67;0.85;;;10.00;88.60;;;;;;2073464;28;20037;-87
2022/05/30 04:30:23;;;;;;;1.70;0.70;;;10.00;88.50;;;;;;2076456;28;20037;-88
2022/05/30 04:31:42;;;;;;;2.15;0.60;;;10.00;88.40;;;;;;2089347;28;20104;-87
2022/05/30 04:33:01;;;;;;;3.38;0.80;;;10.10;88.40;;;;;;2096866;28;20037;-87
2022/05/30 04:34:21;;;;;;;1.98;0.60;;;10.10;88.30;;;;;;2085570;28;20041;-88
2022/05/30 04:35:43;;;;;;;1.73;0.70;;;10.10;88.30;;;;;;2071615;28;20400;-87
2022/05/30 04:37:04;;;;;;;1.55;0.52;;;10.10;88.20;;;;;;2090418;28;20036;-87
2022/05/30 04:38:23;;;;;;;2.03;0.60;;;10.10;88.20;;;;;;2097710;28;20036;-88
2022/05/30 04:39:42;;;;;;;3.50;0.65;;;10.20;88.80;;;;;;2099267;28;20032;-87
2022/05/30 04:41:02;;;;;;;1.33;0.50;;;10.20;88.20;;;;;;2084608;28;20034;-87
2022/05/30 04:42:22;;;;;;;1.83;0.60;;;10.20;88.10;;;;;;2073139;28;20073;-86
2022/05/30 04:43:41;;;;;;;1.65;0.60;;;10.20;88.10;;;;;;2080398;28;20022;-87
2022/05/30 04:45:00;;;;;;;1.35;0.52;;;10.20;88.00;;;;;;2068307;28;20034;-87
2022/05/30 04:46:20;;;;;;;2.65;0.88;;;10.30;88.10;;;;;;2069075;28;20042;-87
2022/05/30 04:47:39;;;;;;;2.03;0.77;;;10.30;88.00;;;;;;2078693;28;20443;-87
2022/05/30 04:49:00;;;;;;;1.42;0.60;;;10.30;87.90;;;;;;2071317;28;20061;-87
2022/05/30 04:50:19;;;;;;;2.30;0.70;;;10.30;87.90;;;;;;2080071;28;20033;-87
2022/05/30 04:51:38;;;;;;;2.08;0.60;;;10.30;87.90;;;;;;2084675;28;20104;-87
2022/05/30 04:52:57;;;;;;;1.70;0.60;;;10.30;87.90;;;;;;2076536;28;20137;-88
2022/05/30 04:54:18;;;;;;;2.08;0.70;;;10.30;87.90;;;;;;2080770;28;20030;-88
2022/05/30 04:55:37;;;;;;;1.27;0.60;;;10.30;87.90;;;;;;2093051;28;20498;-87
2022/05/30 04:56:56;;;;;;;3.03;0.70;;;10.30;88.00;;;;;;2098214;28;20111;-87
2022/05/30 04:58:15;;;;;;;2.13;0.75;;;10.30;88.00;;;;;;2093491;28;20562;-87
2022/05/30 04:59:39;;;;;;;1.33;0.50;;;10.30;88.10;;;;;;2098781;28;20437;-88
2022/05/30 05:01:00;;;;;;;1.83;0.60;;;10.30;88.00;;;;;;2095993;28;20394;-88
2022/05/30 05:02:19;;;;;;;3.97;0.80;;;10.30;88.00;;;;;;2094300;28;20510;-87
2022/05/30 05:03:40;;;;;;;1.17;0.50;;;10.40;88.00;;;;;;2089141;28;20119;-86
2022/05/30 05:04:59;;;;;;;2.35;0.70;;;10.30;87.90;;;;;;2080860;28;20033;-88
2022/05/30 05:06:20;;;;;;;1.52;0.60;;;10.30;87.90;;;;;;2098466;28;20485;-87
2022/05/30 05:07:45;;;;;;;1.30;0.70;;;10.30;87.90;;;;;;2098292;28;20119;-88
2022/05/30 05:09:28;;;;;;;1.70;0.60;;;10.40;87.90;;;;;;2094483;28;20061;-87
2022/05/30 05:10:52;;;;;;;1.40;0.50;;;10.40;87.90;;;;;;2093824;28;20036;-87
2022/05/30 05:12:11;;;;;;;1.55;0.40;;;10.40;87.90;;;;;;2087236;28;20511;-87
2022/05/30 05:13:30;;;;;;;1.80;0.73;;;10.40;87.80;;;;;;2071230;28;20034;-87
2022/05/30 05:14:50;;;;;;;2.42;0.60;;;10.40;87.70;;;;;;2082237;28;20110;-88
2022/05/30 05:16:09;;;;;;;2.10;0.68;;;10.50;87.70;;;;;;2074038;28;20043;-88
2022/05/30 05:17:28;;;;;;;1.98;0.50;;;10.40;87.60;;;;;;2066348;28;20034;-88
2022/05/30 05:18:48;;;;;;;2.15;0.65;;;10.50;87.70;;;;;;2062884;28;20042;-87
2022/05/30 05:20:08;;;;;;;2.53;0.68;;;10.50;87.60;;;;;;2067789;28;20033;-87
2022/05/30 05:21:31;;;;;;;1.83;0.50;;;10.50;87.50;;;;;;2081301;28;20025;-87
2022/05/30 05:22:51;;;;;;;1.13;0.50;;;10.60;87.50;;;;;;2096344;28;20044;-87
2022/05/30 05:24:10;;;;;;;1.13;0.65;;;10.50;88.00;;;;;;2092636;28;20028;-88
2022/05/30 05:25:30;;;;;;;1.70;0.50;;;10.60;87.40;;;;;;2098888;28;20032;-88
2022/05/30 05:26:49;;;;;;;3.85;0.70;;;10.60;87.40;;;;;;2080242;28;20504;-88
2022/05/30 05:28:08;;;;;;;2.60;0.60;;;10.60;87.40;;;;;;2090948;28;20064;-88
2022/05/30 05:29:27;;;;;;;1.98;0.50;;;10.70;87.30;;;;;;2089178;28;20044;-88
2022/05/30 05:30:47;;;;;;;2.53;0.70;;;10.70;87.20;;;;;;2088793;28;20037;-88
2022/05/30 05:32:07;;;;;;;1.90;0.60;;;10.80;87.30;;;;;;2080976;28;20022;-88
2022/05/30 05:33:27;;;;;;;;;;;10.80;87.20;;;;;;2093180;28;20502;-89
2022/05/30 05:34:50;;;;;;;0.60;0.32;;;10.90;87.00;;;;;;2094745;28;20015;-88
2022/05/30 05:36:09;;;;;;;1.65;0.50;;;10.90;86.80;;;;;;2095115;28;20032;-88
2022/05/30 05:37:28;;;;;;;1.20;0.60;;;11.00;86.70;;;;;;2093058;28;20463;-88
2022/05/30 05:38:49;;;;;;;1.33;0.40;;;11.00;86.60;;;;;;2085710;28;20061;-89
2022/05/30 05:40:08;;;;;;;3.55;0.70;;;11.10;86.40;;;;;;2079262;28;20511;-88
2022/05/30 05:41:28;;;;;;;3.88;0.60;;;11.10;86.20;;;;;;2081158;28;20040;-88
2022/05/30 05:42:47;;;;;;;1.63;0.50;;;11.20;86.20;;;;;;2078018;28;20410;-79
2022/05/30 05:44:07;;;;;;;2.42;0.70;;;11.20;86.20;;;;;;2092016;28;20032;-88
2022/05/30 05:45:27;;;;;;;2.42;0.55;;;11.20;86.10;;;;;;2099052;28;20090;-88
2022/05/30 05:46:47;;;;;;;1.60;0.55;;;11.20;86.10;;;;;;2090063;28;20077;-88
2022/05/30 05:48:07;;;;;;;2.60;0.70;;;11.30;86.10;;;;;;2094488;28;20033;-88
2022/05/30 05:49:26;;;;;;;2.05;0.70;;;11.30;86.10;;;;;;2076359;28;20030;-87
2022/05/30 05:50:45;;;;;;;1.42;0.50;;;11.30;86.10;;;;;;2086789;28;20040;-88
2022/05/30 05:52:05;;;;;;;3.58;1.02;;;11.30;86.20;;;;;;2094291;28;20119;-88
2022/05/30 05:53:24;;;;;;;1.45;0.60;;;11.30;86.20;;;;;;2098797;28;20090;-88
2022/05/30 05:54:44;;;;;;;1.10;0.50;;;11.20;86.20;;;;;;2094363;28;20032;-88
2022/05/30 05:56:14;;;;;;;2.78;1.02;;;11.30;86.30;;;;;;2098141;28;20060;-88
2022/05/30 05:57:34;;;;;;;;;;;11.30;86.20;;;;;;2095498;28;20059;-88
2022/05/30 05:58:53;;;;;;;2.33;0.63;;;11.30;86.00;;;;;;2095099;28;19916;-88
2022/05/30 06:00:14;;;;;;;1.83;0.60;;;11.40;85.90;;;;;;2094133;28;20025;-88
2022/05/30 06:01:34;;;;;;;1.52;0.57;;;11.40;85.70;;;;;;2088803;28;21061;-87
2022/05/30 06:02:53;;;;;;;1.95;0.60;;;11.50;85.70;;;;;;2093057;28;20541;-88
2022/05/30 06:04:15;;;;;;;1.80;0.50;;;11.50;85.50;;;;;;2085387;28;20049;-89
2022/05/30 06:05:38;;;;;;;1.10;0.40;;;11.60;85.40;;;;;;2082464;28;20041;-88
2022/05/30 06:07:03;;;;;;;1.17;0.40;;;11.60;85.20;;;;;;2078227;28;20045;-86
2022/05/30 06:08:23;;;;;;;1.35;0.43;;;11.60;85.20;;;;;;2078369;28;20108;-86
2022/05/30 06:09:42;;;;;;;1.00;0.40;;;11.70;85.10;;;;;;2087276;28;20120;-86
2022/05/30 06:11:05;;;;;;;0.70;0.40;;;11.70;85.00;;;;;;2094282;28;20036;-87
2022/05/30 06:12:24;;;;;;;2.03;0.40;;;11.70;84.80;;;;;;2088447;28;20029;-86
2022/05/30 06:13:47;;;;;;;1.52;0.50;;;11.80;84.70;;;;;;2093184;28;20486;-87
2022/05/30 06:15:08;;;;;;;1.27;0.50;;;11.90;84.50;;;;;;2096605;28;20033;-88
2022/05/30 06:16:37;;;;;;;1.77;0.45;;;11.90;84.30;;;;;;2089381;28;20032;-86
2022/05/30 06:17:56;;;;;;;2.70;0.45;;;12.00;84.20;;;;;;2100555;28;20102;-86
2022/05/30 06:19:16;;;;;;;1.48;0.43;;;12.00;84.00;;;;;;2091043;28;20021;-86
2022/05/30 06:20:35;;;;;;;2.22;0.32;;;12.10;83.90;;;;;;2078010;28;20025;-86
2022/05/30 06:21:54;;;;;;;1.05;0.30;;;12.10;83.70;;;;;;2077795;28;20033;-86
2022/05/30 06:23:14;;;;;;;0.75;0.30;;;12.10;83.50;;;;;;2092315;28;20411;-86
2022/05/30 06:24:33;;;;;;;1.38;0.50;;;12.20;83.40;;;;;;2095111;28;20487;-86
2022/05/30 06:25:52;;;;;;;1.70;0.38;;;12.20;83.10;;;;;;2081732;28;20037;-86
2022/05/30 06:27:17;;;;;;;1.75;0.40;;;12.30;83.00;;;;;;2091424;28;20037;-86
2022/05/30 06:28:37;;;;;;;1.05;0.30;;;12.30;82.90;;;;;;2095517;28;20036;-86
2022/05/30 06:29:56;;;;;;;0.75;0.32;;;12.30;82.80;;;;;;2097794;28;20037;-86
2022/05/30 06:31:21;;;;;;;0.95;0.30;;;12.40;82.60;;;;;;2090406;28;20032;-86
2022/05/30 06:32:41;;;;;;;1.35;0.28;;;12.40;82.40;;;;;;2094906;28;20339;-86
2022/05/30 06:34:03;;;;;;;0.63;0.20;;;12.50;82.30;;;;;;2096034;28;20103;-87
2022/05/30 06:35:22;;;;;;;0.35;0.20;;;12.50;82.10;;;;;;2097234;28;20028;-87
2022/05/30 06:36:43;;;;;;;0.77;0.20;;;12.50;81.90;;;;;;2090459;28;20092;-87
2022/05/30 06:38:02;;;;;;;2.45;0.40;;;12.60;81.70;;;;;;2083991;28;20487;-86
2022/05/30 06:39:21;;;;;;;1.52;0.32;;;12.60;81.50;;;;;;2093737;28;20418;-86
2022/05/30 06:40:42;;;;;;;1.15;0.20;;;12.50;81.30;;;;;;2069486;28;20034;-86
2022/05/30 06:42:02;;;;;;;1.85;0.40;;;12.50;81.30;;;;;;2078916;28;20030;-86
2022/05/30 06:43:21;;;;;;;1.27;0.40;;;12.50;81.20;;;;;;2089181;28;20032;-86
2022/05/30 06:44:40;;;;;;;1.38;0.43;;;12.50;81.00;;;;;;2096245;28;20045;-86
2022/05/30 06:45:59;;;;;;;1.92;0.30;;;12.50;81.00;;;;;;2100677;28;20025;-86
2022/05/30 06:47:18;;;;;;;1.63;0.38;;;12.50;81.00;;;;;;2081604;28;20112;-86
2022/05/30 06:48:37;;;;;;;1.67;0.32;;;12.60;81.00;;;;;;2091976;28;20040;-86
2022/05/30 06:49:57;;;;;;;1.45;0.30;;;12.60;80.80;;;;;;2097460;28;20028;-86
2022/05/30 06:51:18;;;;;;;2.05;0.35;;;12.70;80.70;;;;;;2086757;28;20395;-86
2022/05/30 06:52:38;;;;;;;1.42;0.30;;;12.80;80.40;;;;;;2087352;28;20037;-87
2022/05/30 06:53:57;;;;;;;0.82;0.38;;;12.80;80.30;;;;;;2086266;28;20423;-86
2022/05/30 06:55:16;;;;;;;1.52;0.40;;;12.90;80.00;;;;;;2085293;28;20040;-86
2022/05/30 06:58:11;;;;;;;0.95;0.30;;;12.90;79.80;;;;;;2097914;28;20040;-86
2022/05/30 06:58:19;;;;;;;1.08;0.30;;;13.00;79.60;;;;;;2097910;28;20041;-86
2022/05/30 06:59:39;;;;;;;2.33;0.50;;;13.20;79.40;;;;;;2087014;28;20048;-86
2022/05/30 07:01:02;;;;;;;2.65;0.22;;;13.20;79.20;;;;;;2089326;28;20041;-86
2022/05/30 07:02:21;;;;;;;1.88;0.50;;;13.30;79.70;;;;;;2086867;28;20029;-86
2022/05/30 07:03:41;;;;;;;1.15;0.30;;;13.30;78.90;;;;;;2085741;28;20033;-86
2022/05/30 07:05:00;;;;;;;1.20;0.30;;;13.40;78.80;;;;;;2081188;28;20033;-86
2022/05/30 07:06:25;;;;;;;1.42;0.30;;;13.40;78.70;;;;;;2088920;28;20033;-86
2022/05/30 07:07:46;;;;;;;2.10;0.50;;;13.40;78.60;;;;;;2092925;28;20036;-86
2022/05/30 07:09:06;;;;;;;0.82;0.30;;;13.40;78.50;;;;;;2096435;28;20028;-86
2022/05/30 07:10:27;;;;;;;0.85;0.40;;;13.50;78.50;;;;;;2098132;28;20036;-86
2022/05/30 07:11:49;;;;;;;1.98;0.40;;;13.50;78.40;;;;;;2083836;28;20057;-86
2022/05/30 07:13:09;;;;;;;1.88;0.30;;;13.50;78.30;;;;;;2094724;28;20041;-86
2022/05/30 07:14:28;;;;;;;0.50;0.20;;;13.50;78.30;;;;;;2084753;28;20030;-86
2022/05/30 07:15:50;;;;;;;1.15;0.30;;;13.50;78.80;;;;;;2064417;28;20575;-86
2022/05/30 07:17:11;;;;;;;0.90;0.40;;;13.50;78.00;;;;;;2092066;28;20502;-86
2022/05/30 07:18:30;;;;;;;1.45;0.30;;;13.50;77.90;;;;;;2084776;28;20049;-86
2022/05/30 07:19:49;;;;;;;1.67;0.30;;;13.50;77.90;;;;;;2097382;28;20119;-86
2022/05/30 07:21:09;;;;;;;2.67;0.30;;;13.50;78.00;;;;;;2098275;28;20028;-86
2022/05/30 07:22:29;;;;;;;1.38;0.38;;;13.40;77.80;;;;;;2097941;28;20032;-86
2022/05/30 07:23:49;;;;;;;1.05;0.40;;;13.50;77.90;;;;;;2091921;28;20064;-86
2022/05/30 07:25:09;;;;;;;1.80;0.30;;;13.50;77.80;;;;;;2092703;28;20032;-86
2022/05/30 07:26:29;;;;;;;1.15;0.30;;;13.50;77.80;;;;;;2096541;28;20442;-86
2022/05/30 07:27:48;;;;;;;0.70;0.20;;;13.50;77.80;;;;;;2098126;28;20241;-86
2022/05/30 07:29:08;;;;;;;1.63;0.65;;;13.50;78.30;;;;;;2092211;28;20033;-86
2022/05/30 07:30:27;;;;;;;1.42;0.40;;;13.50;77.80;;;;;;2085596;28;20511;-86
2022/05/30 07:31:47;;;;;;;1.27;0.30;;;13.40;77.80;;;;;;2077889;28;20025;-86
2022/05/30 07:33:07;;;;;;;1.00;0.20;;;13.40;77.80;;;;;;2073200;28;20034;-86
2022/05/30 07:34:27;;;;;;;0.88;0.15;;;13.30;77.90;;;;;;2092302;28;20029;-86
2022/05/30 07:35:46;;;;;;;1.48;0.30;;;13.30;78.00;;;;;;2081271;28;20041;-87
2022/05/30 07:37:06;;;;;;;2.13;0.30;;;13.20;78.00;;;;;;2088613;28;20549;-86
2022/05/30 07:38:29;;;;;;;1.95;0.40;;;13.20;78.00;;;;;;2091028;28;20041;-86